Time;durP1;ratioP1;P1;durP2;ratioP2;P2;SDS_P1;SDS_P2;PMS_P1;PMS_P2;Temp;Humidity;BMP_temperature;BMP_pressure;BME280_temperature;BME280_humidity;BME280_pressure;Samples;Min_cycle;Max_cycle;Signal;HPM_P1;HPM_P2
2023/04/05 00:02:28;;;;;;;;;;;2.40;99.90;;;;;;5109101;28;1143;-70
2023/04/05 00:04:56;;;;;;;;;;;2.40;99.90;;;;;;5108354;28;1297;-70
2023/04/05 00:07:23;;;;;;;;;;;2.40;99.90;;;;;;5109516;28;1971;-70
2023/04/05 00:09:49;;;;;;;;;;;2.40;99.90;;;;;;5108827;28;1168;-70
2023/04/05 00:12:14;;;;;;;;;;;2.40;99.90;;;;;;5108939;28;1115;-70
2023/04/05 00:14:40;;;;;;;;;;;2.30;99.90;;;;;;5105873;28;1189;-69
2023/04/05 00:17:06;;;;;;;;;;;2.20;99.90;;;;;;5145459;27;1113;-69
2023/04/05 00:19:32;;;;;;;;;;;2.20;99.90;;;;;;5141449;27;1119;-69
2023/04/05 00:21:58;;;;;;;;;;;2.60;99.90;;;;;;5109120;28;1222;-69
2023/04/05 00:24:24;;;;;;;;;;;2.10;99.90;;;;;;5108962;28;1057;-69
2023/04/05 00:26:50;;;;;;;;;;;2.10;99.90;;;;;;5108890;28;1972;-69
2023/04/05 00:29:15;;;;;;;;;;;2.10;99.90;;;;;;5108758;28;1131;-69
2023/04/05 00:31:41;;;;;;;;;;;2.10;99.90;;;;;;5109100;28;1187;-69
2023/04/05 00:34:09;;;;;;;;;;;2.00;99.90;;;;;;5109322;28;1097;-69
2023/04/05 00:36:35;;;;;;;;;;;2.00;99.90;;;;;;5108711;28;1019;-69
2023/04/05 00:39:00;;;;;;;;;;;2.00;99.90;;;;;;5109310;28;1089;-69
2023/04/05 00:41:26;;;;;;;;;;;2.00;99.90;;;;;;5108434;28;1189;-69
2023/04/05 00:43:52;;;;;;;;;;;2.00;99.90;;;;;;5108748;28;1319;-69
2023/04/05 00:46:17;;;;;;;;;;;2.00;99.90;;;;;;5090997;28;1910;-69
2023/04/05 00:48:43;;;;;;;;;;;2.00;99.90;;;;;;5108332;28;1202;-69
2023/04/05 00:51:10;;;;;;;;;;;2.00;99.90;;;;;;5108273;28;1160;-69
2023/04/05 00:53:36;;;;;;;;;;;2.00;99.90;;;;;;5090887;28;1195;-69
2023/04/05 00:56:02;;;;;;;;;;;2.00;99.90;;;;;;5108978;28;1024;-70
2023/04/05 00:58:28;;;;;;;;;;;2.00;99.90;;;;;;5089856;28;1109;-69
2023/04/05 01:00:58;;;;;;;;;;;1.90;99.90;;;;;;5091021;28;1136;-69
2023/04/05 01:03:26;;;;;;;;;;;1.80;99.90;;;;;;5109828;28;1173;-69
2023/04/05 01:05:56;;;;;;;;;;;1.80;99.90;;;;;;5093848;28;1967;-70
2023/04/05 01:08:25;;;;;;;;;;;1.70;99.90;;;;;;5112421;28;1310;-70
2023/04/05 01:10:53;;;;;;;;;;;1.70;99.90;;;;;;5112575;28;1092;-70
2023/04/05 01:13:19;;;;;;;;;;;1.70;99.90;;;;;;5117493;27;1348;-70
2023/04/05 01:15:45;;;;;;;;;;;1.60;99.90;;;;;;5110107;28;1095;-70
2023/04/05 01:18:12;;;;;;;;;;;1.60;99.90;;;;;;5131932;27;1096;-70
2023/04/05 01:20:41;;;;;;;;;;;1.60;99.90;;;;;;5119065;27;1083;-70
2023/04/05 01:23:29;;;;;;;;;;;1.60;99.90;;;;;;5132902;27;1168;-70
2023/04/05 01:26:04;;;;;;;;;;;1.60;99.90;;;;;;5096331;28;1986;-70
2023/04/05 01:28:42;;;;;;;;;;;1.50;99.90;;;;;;5094181;28;1151;-70
2023/04/05 01:31:27;;;;;;;;;;;1.40;99.90;;;;;;5112069;28;1189;-70
2023/04/05 01:33:57;;;;;;;;;;;1.30;99.90;;;;;;5102677;27;1117;-70
2023/04/05 01:36:27;;;;;;;;;;;1.20;99.90;;;;;;5120785;27;1229;-70
2023/04/05 01:38:53;;;;;;;;;;;1.50;99.90;;;;;;5112394;28;1143;-70
2023/04/05 01:41:20;;;;;;;;;;;1.10;99.90;;;;;;5126922;27;1201;-70
2023/04/05 01:43:46;;;;;;;;;;;1.10;99.90;;;;;;5108122;28;1334;-70
2023/04/05 01:46:11;;;;;;;;;;;1.00;99.90;;;;;;5112236;28;1938;-69
2023/04/05 01:48:37;;;;;;;;;;;1.30;99.90;;;;;;5111261;28;1104;-69
2023/04/05 01:51:03;;;;;;;;;;;1.00;99.90;;;;;;5104373;28;1093;-70
2023/04/05 01:53:29;;;;;;;;;;;1.00;99.90;;;;;;5108050;28;1183;-69
2023/04/05 01:55:58;;;;;;;;;;;1.10;99.90;;;;;;5110873;28;1116;-70
2023/04/05 01:58:24;;;;;;;;;;;1.10;99.90;;;;;;5093516;28;1138;-69
2023/04/05 02:00:52;;;;;;;;;;;1.10;99.90;;;;;;5097501;28;1169;-70
2023/04/05 02:03:18;;;;;;;;;;;1.00;99.90;;;;;;5093116;28;1134;-70
2023/04/05 02:05:43;;;;;;;;;;;0.90;99.90;;;;;;5093301;28;1966;-70
2023/04/05 02:08:09;;;;;;;;;;;0.80;99.90;;;;;;5092150;28;1314;-70
2023/04/05 02:10:35;;;;;;;;;;;0.70;99.90;;;;;;5093315;28;1114;-70
2023/04/05 02:13:00;;;;;;;;;;;0.70;99.90;;;;;;5092986;28;1164;-70
2023/04/05 02:15:26;;;;;;;;;;;0.60;99.90;;;;;;5091922;28;1113;-70
2023/04/05 02:17:52;;;;;;;;;;;0.70;99.90;;;;;;5098111;28;970;-70
2023/04/05 02:20:18;;;;;;;;;;;0.70;99.90;;;;;;5111421;28;1113;-70
2023/04/05 02:22:44;;;;;;;;;;;0.70;99.90;;;;;;5092729;28;1140;-70
2023/04/05 02:25:10;;;;;;;;;;;0.70;99.90;;;;;;5111160;28;1969;-70
2023/04/05 02:27:37;;;;;;;;;;;0.90;99.90;;;;;;5110745;28;1289;-70
2023/04/05 02:30:03;;;;;;;;;;;0.80;99.90;;;;;;5110873;28;1000;-70
2023/04/05 02:32:30;;;;;;;;;;;0.80;99.90;;;;;;5111415;28;1124;-71
2023/04/05 02:34:57;;;;;;;;;;;0.80;99.90;;;;;;5106550;28;1097;-70
2023/04/05 02:37:24;;;;;;;;;;;0.80;99.90;;;;;;5107851;28;1199;-70
2023/04/05 02:39:50;;;;;;;;;;;0.80;99.90;;;;;;5092366;28;1156;-70
2023/04/05 02:42:16;;;;;;;;;;;0.80;99.90;;;;;;5111332;28;1108;-70
2023/04/05 02:44:41;;;;;;;;;;;0.90;99.90;;;;;;5109752;28;1418;-70
2023/04/05 02:47:09;;;;;;;;;;;0.80;99.90;;;;;;5110692;28;1922;-70
2023/04/05 02:49:35;;;;;;;;;;;0.80;99.90;;;;;;5092961;28;1172;-70
2023/04/05 02:52:04;;;;;;;;;;;0.80;99.90;;;;;;5110025;28;1151;-70
2023/04/05 02:54:30;;;;;;;;;;;0.80;99.90;;;;;;5091790;28;1451;-70
2023/04/05 02:57:01;;;;;;;;;;;0.90;99.90;;;;;;5091947;28;1215;-70
2023/04/05 02:59:30;;;;;;;;;;;1.00;99.90;;;;;;5075565;28;1148;-70
2023/04/05 03:01:56;;;;;;;;;;;0.80;99.90;;;;;;5106480;28;1096;-70
2023/04/05 03:04:25;;;;;;;;;;;1.00;99.90;;;;;;5091668;28;1454;-70
2023/04/05 03:06:53;;;;;;;;;;;0.80;99.90;;;;;;5091859;28;1910;-70
2023/04/05 03:09:20;;;;;;;;;;;0.80;99.90;;;;;;5109989;28;1159;-70
2023/04/05 03:11:50;;;;;;;;;;;0.80;99.90;;;;;;5102000;28;1199;-70
2023/04/05 03:14:16;;;;;;;;;;;0.80;99.90;;;;;;5126571;27;1103;-70
2023/04/05 03:16:45;;;;;;;;;;;0.80;99.90;;;;;;5092118;28;1184;-70
2023/04/05 03:19:21;;;;;;;;;;;0.80;99.90;;;;;;5076106;28;1113;-70
2023/04/05 03:21:49;;;;;;;;;;;0.70;99.90;;;;;;5125939;27;1313;-70
2023/04/05 03:24:24;;;;;;;;;;;0.70;99.90;;;;;;5091610;28;1127;-70
2023/04/05 03:26:52;;;;;;;;;;;0.70;99.90;;;;;;5090969;28;1973;-70
2023/04/05 03:29:21;;;;;;;;;;;0.80;99.90;;;;;;5114176;27;1127;-70
2023/04/05 03:31:49;;;;;;;;;;;0.70;99.90;;;;;;5091679;28;970;-70
2023/04/05 03:34:18;;;;;;;;;;;0.60;99.90;;;;;;5091112;28;1088;-70
2023/04/05 03:36:46;;;;;;;;;;;0.90;99.90;;;;;;5091802;28;1045;-70
2023/04/05 03:39:26;;;;;;;;;;;0.60;99.90;;;;;;5077985;28;1073;-70
2023/04/05 03:41:53;;;;;;;;;;;0.70;99.90;;;;;;5091789;28;1104;-70
2023/04/05 03:44:19;;;;;;;;;;;0.60;99.90;;;;;;5091682;28;1589;-70
2023/04/05 03:46:45;;;;;;;;;;;0.60;99.90;;;;;;5100295;28;1975;-70
2023/04/05 03:49:13;;;;;;;;;;;0.60;99.90;;;;;;5099196;28;1205;-70
2023/04/05 03:51:38;;;;;;;;;;;0.70;99.90;;;;;;5109976;28;1120;-70
2023/04/05 03:54:04;;;;;;;;;;;0.80;99.90;;;;;;5090239;28;1000;-70
2023/04/05 03:56:32;;;;;;;;;;;0.70;99.90;;;;;;5125507;27;1092;-70
2023/04/05 03:59:07;;;;;;;;;;;0.60;99.90;;;;;;5091568;28;1032;-70
2023/04/05 04:01:32;;;;;;;;;;;0.60;99.90;;;;;;5108574;28;1104;-70
2023/04/05 04:03:59;;;;;;;;;;;0.60;99.90;;;;;;5090390;28;1254;-70
2023/04/05 04:06:25;;;;;;;;;;;0.70;99.90;;;;;;5091017;28;1906;-70
2023/04/05 04:08:51;;;;;;;;;;;0.90;99.90;;;;;;5090331;28;1628;-70
2023/04/05 04:11:17;;;;;;;;;;;0.60;99.90;;;;;;5091548;28;1175;-70
2023/04/05 04:13:42;;;;;;;;;;;0.50;99.90;;;;;;5132750;27;1500;-70
2023/04/05 04:16:16;;;;;;;;;;;0.70;99.90;;;;;;5090560;28;1249;-70
2023/04/05 04:18:57;;;;;;;;;;;0.50;99.90;;;;;;5091145;28;1124;-69
2023/04/05 04:21:34;;;;;;;;;;;0.50;99.90;;;;;;5079835;28;1139;-70
2023/04/05 04:24:17;;;;;;;;;;;0.50;99.90;;;;;;5073913;28;1156;-69
2023/04/05 04:27:05;;;;;;;;;;;0.50;99.90;;;;;;5109347;28;1913;-69
2023/04/05 04:29:45;;;;;;;;;;;0.50;99.90;;;;;;5107844;28;1164;-70
2023/04/05 04:32:25;;;;;;;;;;;0.40;99.90;;;;;;5091152;28;1108;-70
2023/04/05 04:35:23;;;;;;;;;;;0.40;99.90;;;;;;5109343;28;1116;-70
2023/04/05 04:38:03;;;;;;;;;;;0.40;99.90;;;;;;5091440;28;1289;-70
2023/04/05 04:40:52;;;;;;;;;;;0.30;99.90;;;;;;5112867;28;1183;-70
2023/04/05 04:43:42;;;;;;;;;;;0.30;99.90;;;;;;5112709;28;1323;-69
2023/04/05 04:46:19;;;;;;;;;;;0.60;99.90;;;;;;5113067;28;1913;-70
2023/04/05 04:49:04;;;;;;;;;;;0.30;99.90;;;;;;5103030;28;1140;-70
2023/04/05 04:51:31;;;;;;;;;;;0.30;99.90;;;;;;5112930;28;1071;-69
2023/04/05 04:53:57;;;;;;;;;;;0.30;99.90;;;;;;5094419;28;1266;-69
2023/04/05 04:56:23;;;;;;;;;;;0.30;99.90;;;;;;5112471;28;1230;-70
2023/04/05 04:58:52;;;;;;;;;;;0.30;99.90;;;;;;5094090;28;1089;-70
2023/04/05 05:01:17;;;;;;;;;;;0.20;99.90;;;;;;5112588;28;1087;-70
2023/04/05 05:03:43;;;;;;;;;;;0.30;99.90;;;;;;5111886;28;1320;-70
2023/04/05 05:06:09;;;;;;;;;;;0.30;99.90;;;;;;5091236;28;1910;-70
2023/04/05 05:08:36;;;;;;;;;;;0.20;99.90;;;;;;5112367;28;1628;-70
2023/04/05 05:11:05;;;;;;;;;;;0.60;99.90;;;;;;5112045;28;1151;-70
2023/04/05 05:13:31;;;;;;;;;;;0.30;99.90;;;;;;5094453;28;1162;-70
2023/04/05 05:15:56;;;;;;;;;;;0.40;99.90;;;;;;5107560;28;1196;-70
2023/04/05 05:18:24;;;;;;;;;;;0.40;99.90;;;;;;5093313;28;1019;-70
2023/04/05 05:20:51;;;;;;;;;;;0.30;99.90;;;;;;5094084;28;1286;-70
2023/04/05 05:23:17;;;;;;;;;;;0.40;99.90;;;;;;5111777;28;1092;-70
2023/04/05 05:25:42;;;;;;;;;;;0.40;99.90;;;;;;5111693;28;1934;-70
2023/04/05 05:28:08;;;;;;;;;;;0.40;99.90;;;;;;5112386;28;1570;-70
2023/04/05 05:30:34;;;;;;;;;;;0.40;99.90;;;;;;5112245;28;1143;-70
2023/04/05 05:33:00;;;;;;;;;;;0.40;99.90;;;;;;5098932;28;1185;-70
2023/04/05 05:35:26;;;;;;;;;;;0.50;99.90;;;;;;5112359;28;1069;-71
2023/04/05 05:37:52;;;;;;;;;;;0.50;99.90;;;;;;5111886;28;1191;-70
2023/04/05 05:40:17;;;;;;;;;;;0.60;99.90;;;;;;5092759;28;1129;-70
2023/04/05 05:42:43;;;;;;;;;;;0.60;99.90;;;;;;5112365;28;1311;-70
2023/04/05 05:45:09;;;;;;;;;;;0.70;99.90;;;;;;5093482;28;1164;-70
2023/04/05 05:47:35;;;;;;;;;;;0.70;99.90;;;;;;5111424;28;1976;-70
2023/04/05 05:50:02;;;;;;;;;;;0.90;99.90;;;;;;5110350;28;1112;-70
2023/04/05 05:52:28;;;;;;;;;;;1.00;99.90;;;;;;5111857;28;1108;-70
2023/04/05 05:54:53;;;;;;;;;;;1.20;99.90;;;;;;5111374;28;1156;-70
2023/04/05 05:57:19;;;;;;;;;;;1.30;99.90;;;;;;5112120;28;1100;-70
2023/04/05 05:59:45;;;;;;;;;;;1.30;99.90;;;;;;5092241;28;1437;-70
2023/04/05 06:02:11;;;;;;;;;;;2.90;99.90;;;;;;5111390;28;1097;-70
2023/04/05 06:04:36;;;;;;;;;;;1.40;99.90;;;;;;5075910;28;1137;-70
2023/04/05 06:07:03;;;;;;;;;;;1.50;99.90;;;;;;5110015;28;2082;-70
2023/04/05 06:09:28;;;;;;;;;;;1.70;99.90;;;;;;5111938;28;1136;-70
2023/04/05 06:11:55;;;;;;;;;;;1.90;99.90;;;;;;5093435;28;1156;-70
2023/04/05 06:14:21;;;;;;;;;;;1.90;99.90;;;;;;5124942;27;1176;-70
2023/04/05 06:16:47;;;;;;;;;;;2.10;99.90;;;;;;5121351;27;1125;-70
2023/04/05 06:19:12;;;;;;;;;;;2.20;99.90;;;;;;5111510;28;1108;-70
2023/04/05 06:21:38;;;;;;;;;;;2.40;99.90;;;;;;5092064;28;1164;-70
2023/04/05 06:24:04;;;;;;;;;;;2.60;99.90;;;;;;5111463;28;1101;-70
2023/04/05 06:26:30;;;;;;;;;;;2.70;99.90;;;;;;5110789;28;1964;-70
2023/04/05 06:28:56;;;;;;;;;;;2.80;99.90;;;;;;5110596;28;1128;-70
2023/04/05 06:31:26;;;;;;;;;;;3.00;99.90;;;;;;5093040;28;1112;-71
2023/04/05 06:33:52;;;;;;;;;;;3.00;99.90;;;;;;5092630;28;1112;-70
2023/04/05 06:36:17;;;;;;;;;;;3.30;99.90;;;;;;5110157;28;1127;-70
2023/04/05 06:38:43;;;;;;;;;;;3.60;99.90;;;;;;5111032;28;1085;-70
2023/04/05 06:41:09;;;;;;;;;;;3.50;99.90;;;;;;5111363;28;1097;-70
2023/04/05 06:43:34;;;;;;;;;;;3.60;99.90;;;;;;5109291;28;1283;-70
2023/04/05 06:46:00;;;;;;;;;;;3.90;99.90;;;;;;5111070;28;2004;-70
2023/04/05 06:48:28;;;;;;;;;;;3.80;99.90;;;;;;5111065;28;1120;-70
2023/04/05 06:51:00;;;;;;;;;;;3.90;99.90;;;;;;5109929;28;1064;-70
2023/04/05 06:53:26;;;;;;;;;;;4.00;99.90;;;;;;5106839;28;1167;-70
2023/04/05 06:55:53;;;;;;;;;;;4.10;99.90;;;;;;5092387;28;1117;-70
2023/04/05 06:58:18;;;;;;;;;;;4.20;99.90;;;;;;5091331;28;1112;-70
2023/04/05 07:00:45;;;;;;;;;;;4.30;99.90;;;;;;5109788;28;1060;-70
2023/04/05 07:03:10;;;;;;;;;;;4.50;99.90;;;;;;5109916;28;1155;-70
2023/04/05 07:05:36;;;;;;;;;;;4.60;99.90;;;;;;5091572;28;1926;-70
2023/04/05 07:08:02;;;;;;;;;;;4.70;99.90;;;;;;5110277;28;1367;-70
2023/04/05 07:10:27;;;;;;;;;;;4.80;99.90;;;;;;5109416;28;1110;-70
2023/04/05 07:12:53;;;;;;;;;;;4.90;99.90;;;;;;5112172;27;1140;-70
2023/04/05 07:15:19;;;;;;;;;;;5.10;99.90;;;;;;5131020;27;1202;-70
2023/04/05 07:17:45;;;;;;;;;;;5.10;99.90;;;;;;5127832;27;1080;-70
2023/04/05 07:20:10;;;;;;;;;;;5.20;99.90;;;;;;5110044;28;1237;-70
2023/04/05 07:22:36;;;;;;;;;;;5.40;99.90;;;;;;5091915;28;1117;-70
2023/04/05 07:25:02;;;;;;;;;;;5.60;99.90;;;;;;5109581;28;1152;-70
2023/04/05 07:27:29;;;;;;;;;;;5.70;99.90;;;;;;5109338;28;1950;-70
2023/04/05 07:29:55;;;;;;;;;;;5.80;99.90;;;;;;5110449;28;1093;-70
2023/04/05 07:32:20;;;;;;;;;;;6.00;99.90;;;;;;5109601;28;1116;-70
2023/04/05 07:34:47;;;;;;;;;;;6.10;99.90;;;;;;5110005;28;1185;-70
2023/04/05 07:37:12;;;;;;;;;;;5.00;99.90;;;;;;5109579;28;1108;-70
2023/04/05 07:39:38;;;;;;;;;;;6.30;99.90;;;;;;5109122;28;1228;-70
2023/04/05 07:42:04;;;;;;;;;;;6.40;99.90;;;;;;5109403;28;1180;-70
2023/04/05 07:44:30;;;;;;;;;;;6.60;99.90;;;;;;5109359;28;1757;-71
2023/04/05 07:46:55;;;;;;;;;;;6.70;99.90;;;;;;5109248;28;1921;-70
2023/04/05 07:49:25;;;;;;;;;;;6.80;99.90;;;;;;5109513;28;1049;-70
2023/04/05 07:51:53;;;;;;;;;;;6.90;99.90;;;;;;5109610;28;1092;-70
2023/04/05 07:54:19;;;;;;;;;;;7.00;99.90;;;;;;5090552;28;1142;-70
2023/04/05 07:56:44;;;;;;;;;;;7.20;99.90;;;;;;5109623;28;1128;-70
2023/04/05 07:59:11;;;;;;;;;;;7.20;99.90;;;;;;5109783;28;1112;-70
2023/04/05 08:01:37;;;;;;;;;;;7.40;99.90;;;;;;5109000;28;1092;-70
2023/04/05 08:04:02;;;;;;;;;;;7.50;99.90;;;;;;5108687;28;1275;-70
2023/04/05 08:06:28;;;;;;;;;;;7.70;99.90;;;;;;5090304;28;1922;-70
2023/04/05 08:08:54;;;;;;;;;;;;;;;;;;5091134;28;1628;-70
2023/04/05 08:11:20;;;;;;;;;;;8.00;99.90;;;;;;5108939;28;1171;-70
2023/04/05 08:13:46;;;;;;;;;;;8.10;99.90;;;;;;5117767;28;1143;-70
2023/04/05 08:16:11;;;;;;;;;;;8.20;99.90;;;;;;5130062;28;1123;-70
2023/04/05 08:18:37;;;;;;;;;;;8.40;99.90;;;;;;5130145;28;1179;-70
2023/04/05 08:21:03;;;;;;;;;;;8.50;99.90;;;;;;5101529;28;1271;-70
2023/04/05 08:23:29;;;;;;;;;;;8.60;99.90;;;;;;5109679;28;1131;-70
2023/04/05 08:25:54;;;;;;;;;;;8.70;99.90;;;;;;5109026;28;1901;-70
2023/04/05 08:28:21;;;;;;;;;;;8.80;99.90;;;;;;5108269;28;1122;-70
2023/04/05 08:30:46;;;;;;;;;;;8.90;99.90;;;;;;5105943;28;1075;-70
2023/04/05 08:33:12;;;;;;;;;;;9.10;99.90;;;;;;5091199;28;1128;-70
2023/04/05 08:35:38;;;;;;;;;;;9.20;99.90;;;;;;5105261;28;1175;-70
2023/04/05 08:38:05;;;;;;;;;;;9.30;99.90;;;;;;5108878;28;1167;-70
2023/04/05 08:40:38;;;;;;;;;;;9.50;99.90;;;;;;5108917;28;1120;-70
2023/04/05 08:43:08;;;;;;;;;;;9.60;99.90;;;;;;5108029;28;1419;-70
2023/04/05 08:45:38;;;;;;;;;;;9.80;99.50;;;;;;5109187;28;1910;-71
2023/04/05 08:48:04;;;;;;;;;;;10.00;99.10;;;;;;5108501;28;1142;-70
2023/04/05 08:50:30;;;;;;;;;;;10.10;99.00;;;;;;5108218;28;1180;-70
2023/04/05 08:52:55;;;;;;;;;;;10.30;98.70;;;;;;5109131;28;1164;-70
2023/04/05 08:55:21;;;;;;;;;;;10.40;97.80;;;;;;5108581;28;1152;-70
2023/04/05 08:57:49;;;;;;;;;;;10.50;97.70;;;;;;5108205;28;1100;-70
2023/04/05 09:00:15;;;;;;;;;;;10.60;97.00;;;;;;5109138;28;1092;-70
2023/04/05 09:02:43;;;;;;;;;;;10.70;96.90;;;;;;5108434;28;1309;-70
2023/04/05 09:05:09;;;;;;;;;;;10.80;96.50;;;;;;5108325;28;1145;-70
2023/04/05 09:07:36;;;;;;;;;;;11.00;96.90;;;;;;5100810;28;1901;-70
2023/04/05 09:10:01;;;;;;;;;;;11.10;96.40;;;;;;5090254;28;1230;-70
2023/04/05 09:12:28;;;;;;;;;;;11.20;95.40;;;;;;5108781;28;1104;-70
2023/04/05 09:14:54;;;;;;;;;;;11.40;94.80;;;;;;5124396;27;1144;-71
2023/04/05 09:17:20;;;;;;;;;;;11.50;94.70;;;;;;5108477;28;1112;-71
2023/04/05 09:19:49;;;;;;;;;;;11.60;94.20;;;;;;5108197;28;1091;-70
2023/04/05 09:22:17;;;;;;;;;;;11.80;92.80;;;;;;5124146;28;1163;-71
2023/04/05 09:24:43;;;;;;;;;;;11.80;92.70;;;;;;5110091;28;1116;-71
2023/04/05 09:27:15;;;;;;;;;;;11.90;92.40;;;;;;5076998;28;1922;-70
2023/04/05 09:29:44;;;;;;;;;;;12.10;91.40;;;;;;5128794;27;1159;-71
2023/04/05 09:32:10;;;;;;;;;;;12.20;91.10;;;;;;5110971;28;1192;-71
2023/04/05 09:34:37;;;;;;;;;;;12.30;90.20;;;;;;5112125;28;1211;-70
2023/04/05 09:37:13;;;;;;;;;;;12.50;89.30;;;;;;5112200;28;999;-70
2023/04/05 09:39:39;;;;;;;;;;;12.70;89.60;;;;;;5111179;28;1105;-70
2023/04/05 09:42:06;;;;;;;;;;;12.80;86.00;;;;;;5111956;28;1080;-71
2023/04/05 09:44:53;;;;;;;;;;;12.90;83.30;;;;;;5094080;28;1573;-70
2023/04/05 09:47:20;;;;;;;;;;;13.00;82.30;;;;;;5111807;28;1901;-70
2023/04/05 09:49:50;;;;;;;;;;;13.10;82.50;;;;;;5072764;28;1134;-70
2023/04/05 09:52:23;;;;;;;;;;;13.30;80.00;;;;;;5111525;28;1124;-71
2023/04/05 09:54:50;;;;;;;;;;;13.40;78.70;;;;;;5112080;28;1104;-71
2023/04/05 09:57:17;;;;;;;;;;;13.60;78.90;;;;;;5111179;28;1084;-71
2023/04/05 09:59:43;;;;;;;;;;;13.80;75.00;;;;;;5111041;28;1187;-71
2023/04/05 10:02:09;;;;;;;;;;;13.90;76.50;;;;;;5111733;28;1217;-71
2023/04/05 10:04:42;;;;;;;;;;;14.10;73.90;;;;;;5111354;28;1278;-71
2023/04/05 10:07:10;;;;;;;;;;;14.40;74.20;;;;;;5110237;28;1913;-71
2023/04/05 10:09:35;;;;;;;;;;;14.20;74.10;;;;;;5111631;28;1100;-71
2023/04/05 10:12:02;;;;;;;;;;;14.40;72.70;;;;;;5111399;28;1147;-71
2023/04/05 10:14:28;;;;;;;;;;;14.60;69.10;;;;;;5125907;27;1111;-71
2023/04/05 10:17:06;;;;;;;;;;;14.80;69.20;;;;;;5111287;28;1193;-71
2023/04/05 10:19:36;;;;;;;;;;;15.10;67.70;;;;;;5092560;28;1095;-71
2023/04/05 10:22:02;;;;;;;;;;;;;;;;;;5092859;28;1105;-71
2023/04/05 10:24:33;;;;;;;;;;;16.30;63.40;;;;;;5110772;28;1128;-71
2023/04/05 10:27:04;;;;;;;;;;;17.00;62.20;;;;;;5111235;28;1910;-71
2023/04/05 10:29:37;;;;;;;;;;;17.70;60.10;;;;;;5093008;28;1400;-71
2023/04/05 10:32:09;;;;;;;;;;;18.50;56.80;;;;;;5092778;28;1040;-71
2023/04/05 10:34:42;;;;;;;;;;;19.20;56.50;;;;;;5110099;28;1138;-71
2023/04/05 10:37:14;;;;;;;;;;;19.80;53.30;;;;;;5110024;28;1064;-71
2023/04/05 10:39:44;;;;;;;;;;;20.30;52.10;;;;;;5110746;28;1068;-71
2023/04/05 10:42:21;;;;;;;;;;;20.50;51.50;;;;;;5109923;28;1175;-71
2023/04/05 10:44:50;;;;;;;;;;;21.00;49.70;;;;;;5111098;28;1631;-71
2023/04/05 10:47:18;;;;;;;;;;;21.20;46.60;;;;;;5111101;28;1905;-71
2023/04/05 10:49:47;;;;;;;;;;;21.20;48.50;;;;;;5092066;28;1152;-71
2023/04/05 10:52:12;;;;;;;;;;;21.50;50.90;;;;;;5110170;28;1188;-70
2023/04/05 10:54:39;;;;;;;;;;;22.10;46.90;;;;;;5110654;28;1168;-71
2023/04/05 10:57:07;;;;;;;;;;;22.70;45.50;;;;;;5091735;28;1184;-71
2023/04/05 10:59:33;;;;;;;;;;;23.00;44.00;;;;;;5110452;28;1108;-71
2023/04/05 11:01:59;;;;;;;;;;;23.00;44.90;;;;;;5092096;28;1176;-71
2023/04/05 11:04:25;;;;;;;;;;;23.20;44.70;;;;;;5109832;28;1296;-71
2023/04/05 11:07:17;;;;;;;;;;;23.30;42.70;;;;;;5110176;28;1917;-71
2023/04/05 11:09:51;;;;;;;;;;;23.20;44.30;;;;;;5107719;28;1441;-70
2023/04/05 11:12:17;;;;;;;;;;;23.50;43.50;;;;;;5110277;28;1091;-71
2023/04/05 11:14:45;;;;;;;;;;;;;;;;;;5091969;28;1115;-72
2023/04/05 11:17:29;;;;;;;;;;;23.40;41.80;;;;;;5108861;28;1157;-71
2023/04/05 11:20:02;;;;;;;;;;;22.80;41.60;;;;;;5096835;28;1191;-71
2023/04/05 11:22:28;;;;;;;;;;;21.50;39.60;;;;;;5110193;28;1091;-71
2023/04/05 11:24:57;;;;;;;;;;;20.20;43.30;;;;;;5109260;28;1097;-71
2023/04/05 11:27:24;;;;;;;;;;;18.90;44.90;;;;;;5109729;28;1905;-70
2023/04/05 11:29:50;;;;;;;;;;;18.00;47.20;;;;;;5110347;28;1100;-70
2023/04/05 11:32:16;;;;;;;;;;;17.70;49.60;;;;;;5109172;28;1211;-71
2023/04/05 11:34:42;;;;;;;;;;;19.10;48.30;;;;;;5105313;28;1092;-71
2023/04/05 11:37:08;;;;;;;;;;;20.70;46.10;;;;;;5104695;28;1165;-70
2023/04/05 11:39:36;;;;;;;;;;;21.80;42.70;;;;;;5108857;28;1146;-70
2023/04/05 11:42:02;;;;;;;;;;;22.20;42.50;;;;;;5109904;28;1124;-70
2023/04/05 11:44:38;;;;;;;;;;;22.90;43.90;;;;;;5108700;28;1651;-70
2023/04/05 11:47:05;;;;;;;;;;;23.70;43.90;;;;;;5090955;28;1905;-70
2023/04/05 11:49:32;;;;;;;;;;;24.10;41.50;;;;;;5110065;28;1112;-70
2023/04/05 11:51:57;;;;;;;;;;;23.50;41.70;;;;;;5089544;28;1217;-70
2023/04/05 11:54:27;;;;;;;;;;;22.50;41.00;;;;;;5098926;28;1103;-70
2023/04/05 11:56:52;;;;;;;;;;;21.30;41.10;;;;;;5109596;28;993;-71
2023/04/05 11:59:18;;;;;;;;;;;20.70;43.00;;;;;;5109032;28;1073;-70
2023/04/05 12:01:44;;;;;;;;;;;21.00;42.40;;;;;;5108833;28;1088;-70
2023/04/05 12:04:12;;;;;;;;;;;21.00;42.50;;;;;;5109610;28;1232;-70
2023/04/05 12:06:38;;;;;;;;;;;21.60;44.30;;;;;;5115397;27;2013;-71
2023/04/05 12:09:06;;;;;;;;;;;22.70;43.70;;;;;;5109490;28;1044;-71
2023/04/05 12:11:32;;;;;;;;;;;23.90;41.60;;;;;;5108947;28;1081;-71
2023/04/05 12:13:59;;;;;;;;;;;24.90;40.30;;;;;;5119559;28;1320;-71
2023/04/05 12:16:25;;;;;;;;;;;25.80;40.70;;;;;;5129786;28;1183;-71
2023/04/05 12:18:52;;;;;;;;;;;26.50;39.90;;;;;;5125319;28;1091;-71
2023/04/05 12:21:18;;;;;;;;;;;26.70;39.30;;;;;;5108941;28;1146;-71
2023/04/05 12:23:44;;;;;;;;;;;26.80;38.20;;;;;;5109417;28;1063;-71
2023/04/05 12:26:10;;;;;;;;;;;27.10;36.30;;;;;;5109485;28;1913;-71
2023/04/05 12:28:48;;;;;;;;;;;27.00;35.70;;;;;;5108526;28;1151;-71
2023/04/05 12:31:14;;;;;;;;;;;26.80;38.20;;;;;;5095868;28;1093;-71
2023/04/05 12:33:41;;;;;;;;;;;26.90;36.80;;;;;;5108631;28;1163;-71
2023/04/05 12:36:07;;;;;;;;;;;26.80;36.30;;;;;;5090695;28;1048;-71
2023/04/05 12:38:35;;;;;;;;;;;27.00;36.60;;;;;;5109075;28;1164;-71
2023/04/05 12:41:01;;;;;;;;;;;27.20;35.50;;;;;;5108656;28;1077;-70
2023/04/05 12:43:38;;;;;;;;;;;27.10;32.60;;;;;;5109307;28;1267;-70
2023/04/05 12:46:07;;;;;;;;;;;26.30;33.50;;;;;;5108447;28;1905;-70
2023/04/05 12:48:35;;;;;;;;;;;25.70;34.20;;;;;;5125254;28;1123;-70
2023/04/05 12:51:02;;;;;;;;;;;25.30;36.90;;;;;;5129675;28;1147;-70
2023/04/05 12:53:27;;;;;;;;;;;25.30;36.00;;;;;;5110902;28;1127;-70
2023/04/05 12:55:54;;;;;;;;;;;25.70;36.70;;;;;;5110726;28;1141;-70
2023/04/05 12:58:21;;;;;;;;;;;26.10;37.10;;;;;;5109386;28;1237;-71
2023/04/05 13:00:47;;;;;;;;;;;26.60;35.50;;;;;;5112429;28;1092;-70
2023/04/05 13:03:15;;;;;;;;;;;27.10;34.90;;;;;;5096279;27;1424;-70
2023/04/05 13:05:40;;;;;;;;;;;27.40;34.40;;;;;;5128989;27;1910;-70
2023/04/05 13:08:06;;;;;;;;;;;27.60;35.60;;;;;;5112535;28;1389;-70
2023/04/05 13:10:32;;;;;;;;;;;27.90;36.20;;;;;;5112255;28;1132;-70
2023/04/05 13:12:58;;;;;;;;;;;28.20;35.60;;;;;;5112355;28;1194;-70
2023/04/05 13:15:23;;;;;;;;;;;27.80;32.40;;;;;;5112590;28;1097;-71
2023/04/05 13:17:50;;;;;;;;;;;27.50;35.30;;;;;;5093946;28;1137;-70
2023/04/05 13:20:17;;;;;;;;;;;27.40;36.70;;;;;;5112893;28;1160;-71
2023/04/05 13:22:42;;;;;;;;;;;27.60;35.40;;;;;;5111804;28;1165;-71
2023/04/05 13:25:08;;;;;;;;;;;27.50;34.80;;;;;;5112126;28;1085;-71
2023/04/05 13:27:34;;;;;;;;;;;27.30;35.30;;;;;;5112098;28;1886;-71
2023/04/05 13:30:00;;;;;;;;;;;27.20;34.10;;;;;;5112562;27;1144;-71
2023/04/05 13:32:26;;;;;;;;;;;26.80;35.20;;;;;;5098017;28;1091;-70
2023/04/05 13:34:51;;;;;;;;;;;26.70;34.40;;;;;;5112670;28;1175;-71
2023/04/05 13:37:17;;;;;;;;;;;26.60;35.30;;;;;;5092949;28;1032;-70
2023/04/05 13:39:43;;;;;;;;;;;26.30;33.60;;;;;;5107528;28;1141;-71
2023/04/05 13:42:08;;;;;;;;;;;26.20;35.00;;;;;;5093753;28;1250;-71
2023/04/05 13:44:34;;;;;;;;;;;26.40;34.30;;;;;;5092928;28;1693;-71
2023/04/05 13:47:00;;;;;;;;;;;26.60;35.10;;;;;;5093408;28;1905;-70
2023/04/05 13:49:26;;;;;;;;;;;26.70;32.90;;;;;;5112264;28;1108;-71
2023/04/05 13:51:51;;;;;;;;;;;26.50;34.60;;;;;;5110917;28;1139;-71
2023/04/05 13:54:17;;;;;;;;;;;26.50;33.60;;;;;;5112224;28;1116;-71
2023/04/05 13:56:44;;;;;;;;;;;26.70;36.00;;;;;;5134583;27;1223;-71
2023/04/05 13:59:15;;;;;;;;;;;27.10;35.40;;;;;;5131581;27;1127;-71
2023/04/05 14:01:42;;;;;;;;;;;27.60;35.50;;;;;;5132492;27;1083;-71
2023/04/05 14:04:08;;;;;;;;;;;27.80;34.70;;;;;;5132420;27;1312;-71
2023/04/05 14:06:33;;;;;;;;;;;28.00;32.40;;;;;;5113417;27;1917;-71
2023/04/05 14:08:59;;;;;;;;;;;27.90;33.50;;;;;;5093313;28;1147;-71
2023/04/05 14:11:25;;;;;;;;;;;26.90;31.20;;;;;;5110627;28;1076;-71
2023/04/05 14:13:51;;;;;;;;;;;25.40;31.00;;;;;;5117183;27;1166;-71
2023/04/05 14:16:16;;;;;;;;;;;24.80;32.30;;;;;;5111576;28;1090;-71
2023/04/05 14:18:42;;;;;;;;;;;24.10;34.40;;;;;;5111655;28;1116;-71
2023/04/05 14:21:08;;;;;;;;;;;24.10;34.80;;;;;;5110708;28;1123;-71
2023/04/05 14:23:34;;;;;;;;;;;24.40;34.20;;;;;;5092422;28;1174;-71
2023/04/05 14:25:59;;;;;;;;;;;24.90;33.60;;;;;;5111343;28;1992;-71
2023/04/05 14:28:25;;;;;;;;;;;25.40;34.50;;;;;;5110433;28;1100;-71
2023/04/05 14:30:51;;;;;;;;;;;25.80;35.60;;;;;;5110614;28;1155;-71
2023/04/05 14:33:16;;;;;;;;;;;26.10;36.10;;;;;;5110057;28;1229;-71
2023/04/05 14:35:42;;;;;;;;;;;26.70;36.80;;;;;;5111071;28;1100;-71
2023/04/05 14:38:08;;;;;;;;;;;27.30;35.80;;;;;;5111121;28;1112;-72
2023/04/05 14:40:34;;;;;;;;;;;27.70;35.10;;;;;;5110090;28;1073;-71
2023/04/05 14:43:00;;;;;;;;;;;27.90;34.50;;;;;;5092546;28;1378;-71